createdAt,value
2019-02-23T00:00:12.764Z,-0.1
2019-02-23T00:01:21.198Z,-0.1
2019-02-23T00:02:30.329Z,-0.1
2019-02-23T00:03:39.443Z,-0.1
2019-02-23T00:04:48.587Z,-0.1
2019-02-23T00:05:57.697Z,-0.2
2019-02-23T00:07:06.804Z,-0.2
2019-02-23T00:08:15.908Z,-0.2
2019-02-23T00:09:25.055Z,-0.2
2019-02-23T00:10:34.146Z,-0.2
2019-02-23T00:11:43.400Z,-0.2
2019-02-23T00:12:52.453Z,-0.2
2019-02-23T00:14:01.574Z,-0.2
2019-02-23T00:15:10.624Z,-0.2
2019-02-23T00:16:20.076Z,-0.2
2019-02-23T00:45:07.838Z,-0.3
2019-02-23T00:46:16.892Z,-0.3
2019-02-23T00:47:26.005Z,-0.3
2019-02-23T00:48:35.118Z,-0.3
2019-02-23T00:49:44.288Z,-0.3
2019-02-23T00:50:53.365Z,-0.3
2019-02-23T00:52:02.505Z,-0.3
2019-02-23T00:53:11.613Z,-0.3
2019-02-23T00:54:20.754Z,-0.3
2019-02-23T00:55:29.885Z,-0.3
2019-02-23T00:56:39.008Z,-0.3
2019-02-23T00:57:48.096Z,-0.3
2019-02-23T00:58:57.200Z,-0.3
2019-02-23T01:00:06.364Z,-0.4
2019-02-23T01:01:15.431Z,-0.3
2019-02-23T01:02:24.539Z,-0.3
2019-02-23T01:03:33.667Z,-0.4
2019-02-23T01:04:42.827Z,-0.4
2019-02-23T01:05:51.906Z,-0.4
2019-02-23T01:07:01.047Z,-0.4
2019-02-23T01:08:10.150Z,-0.4
2019-02-23T01:09:19.281Z,-0.4
2019-02-23T01:10:28.363Z,-0.4
2019-02-23T01:11:37.507Z,-0.4
2019-02-23T01:12:46.655Z,-0.4
2019-02-23T01:13:55.740Z,-0.4
2019-02-23T01:15:04.882Z,-0.4
2019-02-23T01:16:13.962Z,-0.4
2019-02-23T01:17:23.113Z,-0.5
2019-02-23T01:18:32.360Z,-0.4
2019-02-23T01:19:47.541Z,-0.4
2019-02-23T01:20:50.426Z,-0.5
2019-02-23T01:21:59.531Z,-0.4
2019-02-23T01:23:08.690Z,-0.5
2019-02-23T01:24:17.803Z,-0.5
2019-02-23T01:25:27.041Z,-0.5
2019-02-23T01:26:36.022Z,-0.5
2019-02-23T01:27:45.128Z,-0.5
2019-02-23T01:28:54.308Z,-0.5
2019-02-23T01:30:03.382Z,-0.5
2019-02-23T01:31:12.491Z,-0.5
2019-02-23T01:32:21.638Z,-0.5
2019-02-23T01:33:30.769Z,-0.6
2019-02-23T01:34:39.811Z,-0.6
2019-02-23T01:35:48.982Z,-0.5
2019-02-23T01:36:58.170Z,-0.5
2019-02-23T01:38:07.193Z,-0.5
2019-02-23T01:39:16.362Z,-0.6
2019-02-23T01:40:25.489Z,-0.6
2019-02-23T01:41:34.577Z,-0.6
2019-02-23T01:42:43.665Z,-0.6
2019-02-23T01:43:52.769Z,-0.6
2019-02-23T01:45:01.926Z,-0.6
2019-02-23T01:46:11.004Z,-0.6
2019-02-23T01:47:20.141Z,-0.6
2019-02-23T01:48:29.275Z,-0.6
2019-02-23T01:49:38.355Z,-0.6
2019-02-23T01:50:47.478Z,-0.6
2019-02-23T01:51:56.608Z,-0.6
2019-02-23T01:53:05.683Z,-0.6
2019-02-23T01:54:14.832Z,-0.6
2019-02-23T01:55:23.902Z,-0.7
2019-02-23T01:56:33.035Z,-0.7
2019-02-23T01:57:42.157Z,-0.7
2019-02-23T01:58:51.310Z,-0.7
2019-02-23T02:00:00.457Z,-0.7
2019-02-23T02:01:09.583Z,-0.7
2019-02-23T02:02:18.636Z,-0.7
2019-02-23T02:03:27.753Z,-0.8
2019-02-23T02:04:36.860Z,-0.7
2019-02-23T02:05:45.961Z,-0.7
2019-02-23T02:06:55.021Z,-0.7
2019-02-23T02:08:04.137Z,-0.7
2019-02-23T02:09:13.305Z,-0.7
2019-02-23T02:10:22.345Z,-0.8
2019-02-23T02:11:31.555Z,-0.8
2019-02-23T02:12:40.612Z,-0.8
2019-02-23T02:13:49.715Z,-0.8
2019-02-23T02:14:58.810Z,-0.8
2019-02-23T02:16:07.930Z,-0.9
2019-02-23T02:17:17.049Z,-0.9
2019-02-23T02:18:26.120Z,-0.9
2019-02-23T02:19:35.246Z,-0.9
2019-02-23T02:20:44.347Z,-0.9
2019-02-23T02:21:53.448Z,-0.9
2019-02-23T02:23:02.537Z,-0.9
2019-02-23T02:24:11.655Z,-0.9
2019-02-23T02:25:20.772Z,-0.9
2019-02-23T02:26:29.900Z,-0.9
2019-02-23T02:27:38.977Z,-0.9
2019-02-23T02:28:48.249Z,-0.9
2019-02-23T02:29:57.197Z,-0.9
2019-02-23T02:31:06.335Z,-1
2019-02-23T02:32:15.429Z,-1
2019-02-23T02:33:24.550Z,-1
2019-02-23T02:34:33.639Z,-1
2019-02-23T02:35:42.727Z,-0.9
2019-02-23T02:36:51.815Z,-1
2019-02-23T02:38:01.084Z,-1
2019-02-23T02:39:10.069Z,-1
2019-02-23T02:40:19.128Z,-0.9
2019-02-23T02:41:28.328Z,-1
2019-02-23T02:42:37.334Z,-1
2019-02-23T02:43:46.418Z,-1
2019-02-23T02:44:55.554Z,-1
2019-02-23T02:46:04.644Z,-1
2019-02-23T02:47:13.768Z,-1
2019-02-23T02:48:22.831Z,-1
2019-02-23T02:49:31.956Z,-1
2019-02-23T02:50:41.091Z,-1
2019-02-23T02:51:50.170Z,-1
2019-02-23T02:52:59.275Z,-1.1
2019-02-23T02:54:08.362Z,-1
2019-02-23T02:55:17.563Z,-1.1
2019-02-23T02:56:26.632Z,-1.1
2019-02-23T02:57:35.730Z,-1.1
2019-02-23T02:58:44.810Z,-1.1
2019-02-23T02:59:53.861Z,-1.1
2019-02-23T03:01:03.001Z,-1.1
2019-02-23T03:02:12.141Z,-1.1
2019-02-23T03:03:21.180Z,-1.1
2019-02-23T03:04:30.297Z,-1.1
2019-02-23T03:05:39.406Z,-1.1
2019-02-23T03:06:48.532Z,-1.2
2019-02-23T03:07:57.589Z,-1.2
2019-02-23T03:09:06.719Z,-1.2
2019-02-23T03:10:15.815Z,-1.2
2019-02-23T03:11:24.880Z,-1.2
2019-02-23T03:12:34.010Z,-1.2
2019-02-23T03:13:43.117Z,-1.2
2019-02-23T03:14:52.207Z,-1.2
2019-02-23T03:16:01.340Z,-1.2
2019-02-23T03:17:10.401Z,-1.2
2019-02-23T03:18:19.512Z,-1.2
2019-02-23T03:19:28.618Z,-1.2
2019-02-23T03:20:37.680Z,-1.2
2019-02-23T03:21:46.796Z,-1.2
2019-02-23T03:22:55.904Z,-1.2
2019-02-23T03:24:05.003Z,-1.2
2019-02-23T03:25:14.110Z,-1.2
2019-02-23T03:26:23.179Z,-1.2
2019-02-23T03:27:32.438Z,-1.2
2019-02-23T03:28:41.391Z,-1.2
2019-02-23T03:29:50.471Z,-1.2
2019-02-23T03:30:59.600Z,-1.2
2019-02-23T03:32:08.729Z,-1.2
2019-02-23T03:33:17.799Z,-1.2
2019-02-23T03:34:26.883Z,-1.2
2019-02-23T03:35:35.993Z,-1.2
2019-02-23T03:36:45.082Z,-1.2
2019-02-23T03:37:54.230Z,-1.2
2019-02-23T03:39:03.254Z,-1.2
2019-02-23T03:40:12.362Z,-1.2
2019-02-23T03:41:21.561Z,-1.2
2019-02-23T03:42:30.625Z,-1.2
2019-02-23T03:43:39.662Z,-1.2
2019-02-23T03:44:48.750Z,-1.2
2019-02-23T03:45:57.922Z,-1.2
2019-02-23T03:47:06.956Z,-1.2
2019-02-23T03:48:16.051Z,-1.2
2019-02-23T03:49:25.146Z,-1.2
2019-02-23T03:50:34.280Z,-1.3
2019-02-23T03:51:43.378Z,-1.3
2019-02-23T03:52:52.529Z,-1.3
2019-02-23T03:54:01.561Z,-1.2
2019-02-23T03:55:10.663Z,-1.3
2019-02-23T03:56:19.773Z,-1.3
2019-02-23T03:57:28.834Z,-1.3
2019-02-23T03:58:37.914Z,-1.3
2019-02-23T03:59:47.013Z,-1.3
2019-02-23T04:00:56.107Z,-1.3
2019-02-23T04:02:05.228Z,-1.3
2019-02-23T04:03:14.323Z,-1.3
2019-02-23T04:04:23.412Z,-1.3
2019-02-23T04:05:32.536Z,-1.4
2019-02-23T04:06:41.618Z,-1.3
2019-02-23T04:07:50.724Z,-1.3
2019-02-23T04:09:02.436Z,-1.3
2019-02-23T04:10:08.929Z,-1.3
2019-02-23T04:11:17.977Z,-1.4
2019-02-23T04:12:27.113Z,-1.4
2019-02-23T04:13:36.288Z,-1.4
2019-02-23T04:14:45.295Z,-1.4
2019-02-23T04:15:54.416Z,-1.3
2019-02-23T04:17:03.455Z,-1.4
2019-02-23T04:18:12.661Z,-1.4
2019-02-23T04:19:21.672Z,-1.4
2019-02-23T04:20:30.793Z,-1.4
2019-02-23T04:21:39.857Z,-1.4
2019-02-23T04:22:48.955Z,-1.3
2019-02-23T04:23:58.071Z,-1.3
2019-02-23T04:25:07.126Z,-1.3
2019-02-23T04:26:16.346Z,-1.3
2019-02-23T04:27:25.339Z,-1.3
2019-02-23T04:28:34.434Z,-1.3
2019-02-23T04:29:46.708Z,-1.3
2019-02-23T04:30:52.626Z,-1.3
2019-02-23T04:32:01.882Z,-1.2
2019-02-23T04:33:10.801Z,-1.3
2019-02-23T04:34:20.022Z,-1.3
2019-02-23T04:35:29.017Z,-1.3
2019-02-23T04:36:38.073Z,-1.3
2019-02-23T04:37:47.207Z,-1.3
2019-02-23T04:38:56.314Z,-1.3
2019-02-23T04:40:05.399Z,-1.3
2019-02-23T04:41:14.508Z,-1.3
2019-02-23T04:42:23.572Z,-1.3
2019-02-23T04:43:32.701Z,-1.3
2019-02-23T04:44:41.777Z,-1.3
2019-02-23T04:45:50.858Z,-1.4
2019-02-23T04:47:00.039Z,-1.4
2019-02-23T04:48:09.127Z,-1.3
2019-02-23T04:49:18.193Z,-1.4
2019-02-23T04:50:27.282Z,-1.4
2019-02-23T04:51:36.397Z,-1.4
2019-02-23T04:52:45.444Z,-1.4
2019-02-23T04:53:54.584Z,-1.4
2019-02-23T04:55:03.661Z,-1.4
2019-02-23T04:56:12.765Z,-1.4
2019-02-23T04:57:21.850Z,-1.4
2019-02-23T04:58:30.946Z,-1.3
2019-02-23T04:59:40.043Z,-1.3
2019-02-23T05:00:49.158Z,-1.4
2019-02-23T05:01:58.234Z,-1.3
2019-02-23T05:03:07.372Z,-1.3
2019-02-23T05:04:19.774Z,-1.4
2019-02-23T05:05:25.605Z,-1.4
2019-02-23T05:06:34.737Z,-1.4
2019-02-23T05:07:43.719Z,-1.4
2019-02-23T05:08:52.828Z,-1.4
2019-02-23T05:10:01.896Z,-1.4
2019-02-23T05:11:11.034Z,-1.4
2019-02-23T05:12:20.091Z,-1.4
2019-02-23T05:13:29.292Z,-1.4
2019-02-23T05:14:38.288Z,-1.3
2019-02-23T05:15:47.420Z,-1.3
2019-02-23T05:16:56.499Z,-1.4
2019-02-23T05:37:40.206Z,-1.5
2019-02-23T05:38:49.227Z,-1.5
2019-02-23T05:39:58.338Z,-1.5
2019-02-23T05:41:07.462Z,-1.5
2019-02-23T05:42:16.578Z,-1.5
2019-02-23T05:43:25.627Z,-1.5
2019-02-23T05:44:34.711Z,-1.6
2019-02-23T05:45:43.771Z,-1.6
2019-02-23T05:46:52.873Z,-1.6
2019-02-23T05:48:01.990Z,-1.6
2019-02-23T05:49:11.096Z,-1.5
2019-02-23T05:50:20.143Z,-1.5
2019-02-23T05:51:38.261Z,-1.5
2019-02-23T05:52:38.347Z,-1.5
2019-02-23T05:53:47.425Z,-1.5
2019-02-23T05:54:56.520Z,-1.6
2019-02-23T05:56:05.570Z,-1.6
2019-02-23T05:57:14.707Z,-1.6
2019-02-23T05:58:23.806Z,-1.6
2019-02-23T05:59:32.840Z,-1.6
2019-02-23T06:00:41.961Z,-1.6
2019-02-23T06:01:51.064Z,-1.6
2019-02-23T06:03:00.137Z,-1.6
2019-02-23T06:04:09.212Z,-1.6
2019-02-23T06:05:18.302Z,-1.6
2019-02-23T06:06:27.378Z,-1.6
2019-02-23T06:07:36.574Z,-1.6
2019-02-23T06:08:45.565Z,-1.6
2019-02-23T06:09:54.656Z,-1.6
2019-02-23T06:11:03.788Z,-1.6
2019-02-23T06:12:12.855Z,-1.6
2019-02-23T06:13:21.921Z,-1.7
2019-02-23T06:14:31.257Z,-1.7
2019-02-23T06:15:40.100Z,-1.6
2019-02-23T06:16:49.191Z,-1.6
2019-02-23T06:17:58.287Z,-1.6
2019-02-23T06:19:07.499Z,-1.6
2019-02-23T06:20:16.457Z,-1.6
2019-02-23T06:21:25.532Z,-1.6
2019-02-23T06:22:34.642Z,-1.6
2019-02-23T06:23:43.717Z,-1.6
2019-02-23T06:24:52.876Z,-1.6
2019-02-23T06:26:01.934Z,-1.5
2019-02-23T06:27:10.964Z,-1.5
2019-02-23T06:28:20.120Z,-1.5
2019-02-23T06:29:29.153Z,-1.5
2019-02-23T06:30:38.242Z,-1.5
2019-02-23T06:32:56.435Z,-1.5
2019-02-23T06:34:15.384Z,-1.5
2019-02-23T06:35:14.565Z,-1.5
2019-02-23T06:36:23.715Z,-1.5
2019-02-23T06:37:32.816Z,-1.4
2019-02-23T06:38:41.887Z,-1.4
2019-02-23T06:39:50.949Z,-1.4
2019-02-23T06:41:00.033Z,-1.4
2019-02-23T06:42:09.130Z,-1.4
2019-02-23T06:43:18.305Z,-1.4
2019-02-23T06:44:27.370Z,-1.4
2019-02-23T06:45:36.404Z,-1.4
2019-02-23T06:46:45.507Z,-1.4
2019-02-23T06:47:54.628Z,-1.3
2019-02-23T06:49:03.762Z,-1.3
2019-02-23T06:50:12.783Z,-1.3
2019-02-23T06:51:21.884Z,-1.2
2019-02-23T06:52:30.971Z,-1.2
2019-02-23T06:53:40.095Z,-1.3
2019-02-23T06:54:49.207Z,-1.3
2019-02-23T06:55:58.282Z,-1.3
2019-02-23T06:57:07.372Z,-1.2
2019-02-23T06:58:16.517Z,-1.2
2019-02-23T06:59:25.621Z,-1.2
2019-02-23T07:00:34.747Z,-1.2
2019-02-23T07:01:43.809Z,-1.1
2019-02-23T07:02:52.889Z,-1.1
2019-02-23T07:04:02.000Z,-1.1
2019-02-23T07:05:11.097Z,-1.1
2019-02-23T07:06:20.213Z,-1.1
2019-02-23T07:07:29.309Z,-1.1
2019-02-23T07:08:38.417Z,-1.1
2019-02-23T07:09:47.547Z,-1
2019-02-23T07:10:56.618Z,-1
2019-02-23T07:12:05.788Z,-1
2019-02-23T07:13:14.846Z,-0.9
2019-02-23T07:14:23.950Z,-1
2019-02-23T07:15:33.111Z,-1
2019-02-23T07:16:42.177Z,-1
2019-02-23T07:17:51.279Z,-0.9
2019-02-23T07:19:00.381Z,-0.7
2019-02-23T07:20:09.485Z,-0.7
2019-02-23T07:21:18.602Z,-0.9
2019-02-23T07:22:27.701Z,-0.8
2019-02-23T07:23:36.861Z,-1
2019-02-23T07:24:45.948Z,-0.9
2019-02-23T07:25:55.049Z,-0.9
2019-02-23T07:27:04.160Z,-0.7
2019-02-23T07:28:13.275Z,-1
2019-02-23T07:29:22.511Z,-1
2019-02-23T07:30:31.508Z,-1.1
2019-02-23T07:31:40.626Z,-1
2019-02-23T07:32:49.744Z,-0.7
2019-02-23T07:33:58.868Z,-0.4
2019-02-23T07:35:07.983Z,-0.6
2019-02-23T07:36:17.092Z,-0.6
2019-02-23T07:37:26.211Z,-0.5
2019-02-23T07:38:35.551Z,-0.7
2019-02-23T07:39:44.471Z,-0.8
2019-02-23T07:40:53.574Z,-0.9
2019-02-23T07:42:02.748Z,-0.9
2019-02-23T07:43:11.813Z,-0.8
2019-02-23T07:44:20.930Z,-0.7
2019-02-23T07:45:30.056Z,-0.7
2019-02-23T07:46:39.210Z,-0.2
2019-02-23T07:47:48.306Z,-0.4
2019-02-23T07:48:57.412Z,-0.5
2019-02-23T07:50:06.534Z,-0.5
2019-02-23T07:51:15.651Z,-0.5
2019-02-23T07:52:26.433Z,-0.6
2019-02-23T07:53:34.041Z,-0.7
2019-02-23T07:54:43.024Z,-0.5
2019-02-23T07:55:52.159Z,-0.7
2019-02-23T07:57:01.376Z,-0.5
2019-02-23T07:58:10.426Z,-0.6
2019-02-23T07:59:19.523Z,-0.5
2019-02-23T08:00:28.660Z,-0.4
2019-02-23T08:01:37.876Z,-0.2
2019-02-23T08:02:46.886Z,-0.4
2019-02-23T08:03:56.042Z,-0.4
2019-02-23T08:05:05.142Z,-0.4
2019-02-23T08:06:14.314Z,-0.3
2019-02-23T08:07:23.400Z,-0.4
2019-02-23T08:08:32.536Z,-0.1
2019-02-23T08:10:50.961Z,0.2
2019-02-23T08:15:27.308Z,0.3
2019-02-23T08:16:36.440Z,0.4
2019-02-23T08:17:45.570Z,0.7
2019-02-23T08:18:54.710Z,1.3
2019-02-23T08:20:03.858Z,1.4
2019-02-23T08:21:13.002Z,0.9
2019-02-23T08:22:22.235Z,0.5
2019-02-23T08:23:31.422Z,0.8
2019-02-23T08:24:40.474Z,1
2019-02-23T08:25:49.725Z,0.8
2019-02-23T08:26:58.727Z,1.3
2019-02-23T08:28:07.879Z,1.4
2019-02-23T08:29:17.181Z,1.4
2019-02-23T08:30:26.195Z,1.1
2019-02-23T08:31:35.329Z,1.2
2019-02-23T08:32:44.649Z,1.1
2019-02-23T08:33:53.660Z,0.9
2019-02-23T08:35:02.804Z,0.8
2019-02-23T08:36:11.981Z,0.9
2019-02-23T08:37:21.120Z,1
2019-02-23T08:38:30.395Z,1.3
2019-02-23T08:39:39.555Z,1.1
2019-02-23T08:40:48.614Z,1.1
2019-02-23T08:41:57.795Z,1.3
2019-02-23T08:43:06.977Z,1.1
2019-02-23T08:44:16.224Z,1
2019-02-23T08:45:25.285Z,0.9
2019-02-23T08:46:34.610Z,0.8
2019-02-23T08:47:43.611Z,0.8
2019-02-23T08:48:52.917Z,0.8
2019-02-23T08:50:01.946Z,1
2019-02-23T08:51:11.128Z,1.3
2019-02-23T08:52:20.299Z,1.1
2019-02-23T08:53:29.469Z,1
2019-02-23T08:54:38.683Z,1.2
2019-02-23T08:55:47.853Z,1.7
2019-02-23T08:56:56.988Z,2
2019-02-23T08:58:06.163Z,1.7
2019-02-23T08:59:15.388Z,1.5
2019-02-23T09:00:24.531Z,1.7
2019-02-23T09:01:33.712Z,1.5
2019-02-23T09:02:42.905Z,1.6
2019-02-23T09:03:52.078Z,1.5
2019-02-23T09:05:01.305Z,2.2
2019-02-23T09:06:10.467Z,2.6
2019-02-23T09:07:19.637Z,2.6
2019-02-23T09:08:28.818Z,2.6
2019-02-23T09:09:38.014Z,3.2
2019-02-23T09:10:47.201Z,3.8
2019-02-23T09:11:56.471Z,2.7
2019-02-23T09:13:05.698Z,2.9
2019-02-23T09:14:14.810Z,2.5
2019-02-23T09:15:23.999Z,1.7
2019-02-23T09:16:33.189Z,2.1
2019-02-23T09:17:42.394Z,2.4
2019-02-23T09:18:51.652Z,1.6
2019-02-23T09:20:00.789Z,1.6
2019-02-23T09:21:09.997Z,2.9
2019-02-23T09:22:19.190Z,2.9
2019-02-23T09:23:28.423Z,3.1
2019-02-23T09:24:37.588Z,2.2
2019-02-23T09:25:46.795Z,2.4
2019-02-23T09:26:56.009Z,2.1
2019-02-23T09:28:05.211Z,3.1
2019-02-23T09:29:14.432Z,3.2
2019-02-23T09:30:23.663Z,3.2
2019-02-23T09:31:32.846Z,3.3
2019-02-23T09:32:42.081Z,3.8
2019-02-23T09:33:51.276Z,4
2019-02-23T09:35:00.557Z,3.5
2019-02-23T09:36:09.724Z,3.2
2019-02-23T09:37:18.975Z,3.5
2019-02-23T09:38:28.165Z,3.3
2019-02-23T09:39:37.404Z,4.1
2019-02-23T09:40:46.620Z,3.4
2019-02-23T09:41:55.865Z,3.4
2019-02-23T09:43:05.105Z,4.1
2019-02-23T09:44:14.315Z,3.1
2019-02-23T09:45:23.544Z,3.6
2019-02-23T09:46:32.830Z,3.5
2019-02-23T09:47:42.022Z,3.1
2019-02-23T09:48:51.246Z,3.2
2019-02-23T09:50:00.490Z,3.4
2019-02-23T09:51:09.738Z,3.4
2019-02-23T09:52:19.010Z,3.4
2019-02-23T09:53:28.211Z,2.9
2019-02-23T09:54:37.424Z,3.1
2019-02-23T09:55:46.672Z,3.3
2019-02-23T09:56:55.917Z,3.9
2019-02-23T09:58:05.145Z,4.1
2019-02-23T09:59:15.966Z,3.9
2019-02-23T10:00:25.219Z,3.4
2019-02-23T10:01:34.464Z,3
2019-02-23T10:02:43.676Z,3
2019-02-23T10:03:53.034Z,3.5
2019-02-23T10:05:02.162Z,3.3
2019-02-23T10:06:11.410Z,3.6
2019-02-23T10:07:20.633Z,2.9
2019-02-23T10:08:29.888Z,2.9
2019-02-23T10:09:39.157Z,3.2
2019-02-23T10:10:48.394Z,3.7
2019-02-23T10:11:57.606Z,3.6
2019-02-23T10:13:06.827Z,3.5
2019-02-23T10:14:16.071Z,3.8
2019-02-23T10:15:25.309Z,4
2019-02-23T10:16:34.548Z,4
2019-02-23T10:17:43.801Z,4
2019-02-23T10:18:53.096Z,3.9
2019-02-23T10:20:02.501Z,3.5
2019-02-23T10:21:11.514Z,3.6
2019-02-23T10:22:20.793Z,4.1
2019-02-23T10:23:30.073Z,3.5
2019-02-23T10:24:39.271Z,3.5
2019-02-23T10:25:48.533Z,3.2
2019-02-23T10:26:57.757Z,3.4
2019-02-23T10:28:07.000Z,3.6
2019-02-23T10:29:16.352Z,3.7
2019-02-23T10:30:25.513Z,3.7
2019-02-23T10:31:34.749Z,3.7
2019-02-23T10:32:43.994Z,4.1
2019-02-23T10:38:30.552Z,3.9
2019-02-23T10:39:39.467Z,3.8
2019-02-23T10:40:48.940Z,4.5
2019-02-23T10:41:57.980Z,4.4
2019-02-23T10:43:07.213Z,4.5
2019-02-23T10:44:16.539Z,4.7
2019-02-23T10:45:25.735Z,4.9
2019-02-23T10:46:34.980Z,4.2
2019-02-23T10:47:44.262Z,4.4
2019-02-23T10:48:53.508Z,4.7
2019-02-23T10:50:02.793Z,4.3
2019-02-23T10:51:12.032Z,4.1
2019-02-23T10:52:21.300Z,4.1
2019-02-23T10:53:32.906Z,4.2
2019-02-23T10:54:39.849Z,4
2019-02-23T10:55:49.087Z,4.1
2019-02-23T10:56:58.420Z,4.8
2019-02-23T10:58:07.631Z,5.8
2019-02-23T10:59:16.902Z,5.2
2019-02-23T11:00:26.165Z,4.3
2019-02-23T11:01:35.433Z,4.4
2019-02-23T11:02:44.709Z,5
2019-02-23T11:03:53.991Z,4.5
2019-02-23T11:05:03.273Z,4.2
2019-02-23T11:06:12.522Z,4.8
2019-02-23T11:07:21.830Z,4.3
2019-02-23T11:08:31.071Z,5
2019-02-23T11:09:40.355Z,5.2
2019-02-23T11:10:49.625Z,4.9
2019-02-23T11:11:58.889Z,5.2
2019-02-23T11:13:08.173Z,4.9
2019-02-23T11:14:17.610Z,5.5
2019-02-23T11:15:26.756Z,5.3
2019-02-23T11:16:36.013Z,5.5
2019-02-23T11:17:45.324Z,5.4
2019-02-23T11:18:54.564Z,5.7
2019-02-23T11:20:03.850Z,5.3
2019-02-23T11:21:13.188Z,5.4
2019-02-23T11:22:22.463Z,5.4
2019-02-23T11:23:31.702Z,5.4
2019-02-23T11:24:40.996Z,5.5
2019-02-23T11:25:50.282Z,6
2019-02-23T11:26:59.564Z,6
2019-02-23T11:28:08.875Z,5.8
2019-02-23T11:29:18.144Z,6.9
2019-02-23T11:30:27.439Z,5.8
2019-02-23T11:31:36.748Z,6.6
2019-02-23T11:32:46.030Z,7
2019-02-23T11:33:55.344Z,6.9
2019-02-23T11:35:04.633Z,6.4
2019-02-23T11:36:13.978Z,6.1
2019-02-23T11:37:23.287Z,5.3
2019-02-23T11:38:32.542Z,5.5
2019-02-23T11:39:41.883Z,6.6
2019-02-23T11:40:51.211Z,6.7
2019-02-23T11:42:00.472Z,6.4
2019-02-23T11:43:09.811Z,6.6
2019-02-23T11:44:19.102Z,6.9
2019-02-23T11:45:30.745Z,7.8
2019-02-23T11:46:37.744Z,6.3
2019-02-23T11:47:47.102Z,6.4
2019-02-23T11:48:56.406Z,6.4
2019-02-23T11:50:05.696Z,6
2019-02-23T11:51:15.048Z,5.9
2019-02-23T11:52:24.330Z,7.5
2019-02-23T11:53:33.671Z,7.5
2019-02-23T11:54:44.151Z,6.5
2019-02-23T11:55:52.371Z,6
2019-02-23T11:57:01.643Z,6.3
2019-02-23T11:58:10.992Z,6.4
2019-02-23T11:59:20.318Z,6.4
2019-02-23T12:00:29.633Z,6.7
2019-02-23T12:01:38.980Z,5.9
2019-02-23T12:02:52.262Z,6.1
2019-02-23T12:03:57.687Z,7.2
2019-02-23T12:05:06.950Z,7.3
2019-02-23T12:06:16.347Z,7.4
2019-02-23T12:07:25.642Z,8.5
2019-02-23T12:08:34.958Z,9.4
2019-02-23T12:09:44.321Z,7.8
2019-02-23T12:10:53.650Z,7.5
2019-02-23T12:12:03.021Z,7.4
2019-02-23T12:13:12.355Z,7.4
2019-02-23T12:14:21.711Z,7.3
2019-02-23T12:15:31.111Z,7.1
2019-02-23T12:16:40.413Z,7.2
2019-02-23T12:17:49.788Z,6.7
2019-02-23T12:18:59.142Z,7.3
2019-02-23T12:20:08.566Z,8.1
2019-02-23T12:22:27.262Z,6.4
2019-02-23T12:23:36.589Z,6.7
2019-02-23T12:24:45.915Z,6.7
2019-02-23T12:25:55.270Z,6.9
2019-02-23T12:27:04.624Z,6.9
2019-02-23T12:28:13.991Z,7
2019-02-23T12:29:23.339Z,7
2019-02-23T12:30:32.881Z,7
2019-02-23T12:31:42.046Z,7
2019-02-23T12:32:51.395Z,6.6
2019-02-23T12:34:00.963Z,6.1
2019-02-23T12:35:10.086Z,6.1
2019-02-23T12:36:19.548Z,5.8
2019-02-23T12:37:28.770Z,5.9
2019-02-23T12:38:38.138Z,6.4
2019-02-23T12:39:47.497Z,6.7
2019-02-23T12:40:56.781Z,7.8
2019-02-23T12:42:06.124Z,7.4
2019-02-23T12:43:15.462Z,7.2
2019-02-23T12:44:24.797Z,6.4
2019-02-23T12:45:34.215Z,6.2
2019-02-23T12:46:43.477Z,6.4
2019-02-23T12:47:52.810Z,6.4
2019-02-23T12:49:02.143Z,5.8
2019-02-23T12:50:11.466Z,5.5
2019-02-23T12:51:20.797Z,5.6
2019-02-23T12:52:30.129Z,5.8
2019-02-23T12:53:39.479Z,5.8
2019-02-23T12:54:48.907Z,5.9
2019-02-23T12:55:58.119Z,5.4
2019-02-23T12:57:07.421Z,5.5
2019-02-23T12:58:16.749Z,5.5
2019-02-23T12:59:26.040Z,5.6
2019-02-23T13:00:35.359Z,5.5
2019-02-23T13:01:44.699Z,5.2
2019-02-23T13:02:53.979Z,5.6
2019-02-23T13:04:03.482Z,5.7
2019-02-23T13:05:12.597Z,5.3
2019-02-23T13:06:21.918Z,5.4
2019-02-23T13:07:31.458Z,5.5
2019-02-23T13:08:40.540Z,5.8
2019-02-23T13:09:49.846Z,5.5
2019-02-23T13:10:59.113Z,5.7
2019-02-23T13:12:08.408Z,5.6
2019-02-23T13:13:17.854Z,5.5
2019-02-23T13:14:27.005Z,5.9
2019-02-23T13:15:36.329Z,5.7
2019-02-23T13:16:45.636Z,5.6
2019-02-23T13:17:54.925Z,5.8
2019-02-23T13:19:04.477Z,5.3
2019-02-23T13:20:13.510Z,5.4
2019-02-23T13:21:22.807Z,5.4
2019-02-23T13:22:32.108Z,5.6
2019-02-23T13:23:41.529Z,5.6
2019-02-23T13:24:50.776Z,5.6
2019-02-23T13:25:59.998Z,5.9
2019-02-23T13:27:09.326Z,5.8
2019-02-23T13:28:18.608Z,5.8
2019-02-23T13:29:27.976Z,6.3
2019-02-23T13:30:37.219Z,5.7
2019-02-23T13:31:46.558Z,5.9
2019-02-23T13:32:55.829Z,5.3
2019-02-23T13:34:05.167Z,5.5
2019-02-23T13:35:14.426Z,5.5
2019-02-23T13:36:23.765Z,5.5
2019-02-23T13:37:33.023Z,5.7
2019-02-23T13:38:42.331Z,5.7
2019-02-23T13:39:51.631Z,5.7
2019-02-23T13:41:00.897Z,5.7
2019-02-23T13:42:10.193Z,5.8
2019-02-23T13:43:19.489Z,5.5
2019-02-23T13:44:28.794Z,5.6
2019-02-23T13:45:38.191Z,5.7
2019-02-23T13:46:47.408Z,5.7
2019-02-23T13:47:56.659Z,5.6
2019-02-23T13:49:05.958Z,5.7
2019-02-23T13:50:15.241Z,5.7
2019-02-23T13:51:24.573Z,5.5
2019-02-23T13:52:33.894Z,5.6
2019-02-23T13:53:43.111Z,6
2019-02-23T13:54:52.406Z,6.2
2019-02-23T13:56:01.700Z,6.2
2019-02-23T13:57:11.017Z,6
2019-02-23T13:58:20.290Z,5.8
2019-02-23T13:59:29.578Z,6.1
2019-02-23T14:00:38.867Z,6.2
2019-02-23T14:01:48.182Z,6.8
2019-02-23T14:02:57.479Z,6.4
2019-02-23T14:04:06.755Z,6.5
2019-02-23T14:05:16.066Z,6.2
2019-02-23T14:06:25.357Z,6.3
2019-02-23T14:07:34.652Z,6.4
2019-02-23T14:08:43.947Z,6.4
2019-02-23T14:09:53.266Z,6.1
2019-02-23T14:11:02.536Z,6.6
2019-02-23T14:12:11.852Z,6.8
2019-02-23T14:13:21.152Z,7.3
2019-02-23T14:14:30.450Z,7.5
2019-02-23T14:15:39.731Z,7.7
2019-02-23T14:16:49.033Z,7.7
2019-02-23T14:17:58.326Z,7.1
2019-02-23T14:19:07.627Z,7.6
2019-02-23T14:20:16.942Z,6.7
2019-02-23T14:21:26.256Z,6.3
2019-02-23T14:22:35.554Z,6.1
2019-02-23T14:23:44.853Z,6.3
2019-02-23T14:24:54.178Z,6.4
2019-02-23T14:26:03.465Z,6.2
2019-02-23T14:27:12.789Z,6.4
2019-02-23T14:28:22.175Z,6.4
2019-02-23T14:29:31.457Z,6.5
2019-02-23T14:30:40.707Z,6.4
2019-02-23T14:31:49.957Z,6.1
2019-02-23T14:32:59.248Z,5.9
2019-02-23T14:34:08.534Z,6
2019-02-23T14:35:17.842Z,6.2
2019-02-23T14:36:27.123Z,6.4
2019-02-23T14:37:36.424Z,6.3
2019-02-23T14:38:45.747Z,6.3
2019-02-23T14:39:56.742Z,6
2019-02-23T14:41:04.301Z,6
2019-02-23T14:42:13.595Z,6
2019-02-23T14:43:22.962Z,5.9
2019-02-23T14:44:32.191Z,6.2
2019-02-23T14:45:41.508Z,5.8
2019-02-23T14:46:50.730Z,5.8
2019-02-23T14:48:00.016Z,6
2019-02-23T14:49:09.343Z,5.8
2019-02-23T14:50:18.607Z,5.7
2019-02-23T14:51:27.932Z,5.9
2019-02-23T14:52:37.203Z,6.2
2019-02-23T14:53:46.577Z,6.1
2019-02-23T14:55:00.801Z,5.8
2019-02-23T14:56:04.977Z,5.8
2019-02-23T14:57:14.254Z,5.7
2019-02-23T14:58:23.533Z,5.7
2019-02-23T14:59:32.849Z,5.4
2019-02-23T15:00:42.196Z,5.5
2019-02-23T15:01:51.389Z,5.6
2019-02-23T15:03:00.622Z,5.7
2019-02-23T15:04:09.928Z,5.8
2019-02-23T15:05:19.167Z,5.9
2019-02-23T15:06:28.446Z,6
2019-02-23T15:07:37.733Z,5.9
2019-02-23T15:08:46.991Z,5.7
2019-02-23T15:09:56.312Z,5.8
2019-02-23T15:11:05.532Z,5.5
2019-02-23T15:12:14.804Z,5.6
2019-02-23T15:13:24.079Z,5.6
2019-02-23T15:14:33.318Z,5.6
2019-02-23T15:15:42.591Z,5.6
2019-02-23T15:16:51.861Z,5.6
2019-02-23T15:18:01.252Z,5.6
2019-02-23T15:19:10.409Z,5.6
2019-02-23T15:20:19.660Z,5.6
2019-02-23T15:21:28.937Z,5.7
2019-02-23T15:22:38.182Z,5.6
2019-02-23T15:23:47.483Z,5.7
2019-02-23T15:24:56.747Z,5.6
2019-02-23T15:26:05.979Z,5.7
2019-02-23T15:27:15.245Z,5.6
2019-02-23T15:28:35.984Z,5.6
2019-02-23T15:29:33.918Z,5.7
2019-02-23T15:30:43.016Z,5.7
2019-02-23T15:31:52.279Z,5.9
2019-02-23T15:33:01.618Z,5.6
2019-02-23T15:34:11.020Z,5.6
2019-02-23T15:35:20.094Z,5.6
2019-02-23T15:36:29.327Z,5.7
2019-02-23T15:37:38.580Z,5.7
2019-02-23T15:38:47.992Z,5.6
2019-02-23T15:39:57.131Z,5.6
2019-02-23T15:41:06.386Z,5.4
2019-02-23T15:42:15.637Z,5.5
2019-02-23T15:43:24.864Z,5.5
2019-02-23T15:44:34.143Z,5.7
2019-02-23T15:45:43.385Z,5.6
2019-02-23T15:46:52.655Z,5.5
2019-02-23T15:48:01.891Z,5.5
2019-02-23T15:49:11.182Z,5.6
2019-02-23T15:50:20.441Z,5.5
2019-02-23T15:51:29.732Z,5.4
2019-02-23T15:52:38.901Z,5.4
2019-02-23T15:53:48.188Z,5.4
2019-02-23T15:54:57.432Z,5.3
2019-02-23T15:56:06.767Z,5.3
2019-02-23T15:57:16.055Z,5.3
2019-02-23T15:58:25.155Z,5.3
2019-02-23T15:59:34.462Z,5.3
2019-02-23T16:00:43.667Z,5.3
2019-02-23T16:01:52.911Z,5.2
2019-02-23T16:03:02.180Z,5.2
2019-02-23T16:04:11.390Z,5.1
2019-02-23T16:05:20.649Z,5.1
2019-02-23T16:06:31.579Z,5.1
2019-02-23T16:07:39.147Z,5.1
2019-02-23T16:08:48.383Z,5.1
2019-02-23T16:09:57.652Z,5.1
2019-02-23T16:11:06.883Z,5.1
2019-02-23T16:12:16.142Z,5
2019-02-23T16:13:25.414Z,5
2019-02-23T16:14:34.612Z,5
2019-02-23T16:15:43.909Z,5
2019-02-23T16:16:53.087Z,5
2019-02-23T16:18:02.353Z,5
2019-02-23T16:19:11.569Z,4.9
2019-02-23T16:20:20.803Z,4.9
2019-02-23T16:21:30.037Z,4.9
2019-02-23T16:22:39.279Z,5
2019-02-23T16:23:48.542Z,4.9
2019-02-23T16:24:57.763Z,4.9
2019-02-23T16:26:07.000Z,4.9
2019-02-23T16:27:16.323Z,4.8
2019-02-23T16:28:25.513Z,4.8
2019-02-23T16:29:38.621Z,4.8
2019-02-23T16:30:43.992Z,4.8
2019-02-23T16:31:53.172Z,4.7
2019-02-23T16:33:02.481Z,4.8
2019-02-23T16:34:11.642Z,4.7
2019-02-23T16:35:22.390Z,4.7
2019-02-23T16:36:30.139Z,4.6
2019-02-23T16:37:39.381Z,4.6
2019-02-23T16:38:48.573Z,4.7
2019-02-23T16:39:57.832Z,4.6
2019-02-23T16:41:07.049Z,4.6